createdAt,value
2018-11-05T00:02:06.274Z,3.97
2018-11-05T00:04:34.487Z,3.70
2018-11-05T00:07:02.824Z,4.53
2018-11-05T00:09:31.047Z,4.03
2018-11-05T00:11:59.324Z,4.57
2018-11-05T00:14:27.533Z,4.87
2018-11-05T00:16:55.844Z,3.30
2018-11-05T00:19:24.028Z,4.90
2018-11-05T00:21:52.211Z,4.63
2018-11-05T00:24:20.448Z,3.23
2018-11-05T00:26:48.661Z,4.37
2018-11-05T00:29:16.892Z,4.50
2018-11-05T00:31:45.099Z,4.33
2018-11-05T00:34:13.445Z,5.10
2018-11-05T00:36:41.633Z,5.80
2018-11-05T00:39:11.732Z,5.80
2018-11-05T00:41:40.573Z,4.00
2018-11-05T00:44:09.091Z,4.43
2018-11-05T00:46:37.785Z,3.57
2018-11-05T00:49:06.463Z,4.10
2018-11-05T00:51:35.314Z,4.80
2018-11-05T00:54:03.618Z,4.43
2018-11-05T00:56:31.823Z,4.50
2018-11-05T00:59:00.033Z,5.03
2018-11-05T01:01:28.489Z,5.03
2018-11-05T01:03:56.703Z,5.80
2018-11-05T01:06:24.893Z,4.50
2018-11-05T01:08:53.103Z,5.80
2018-11-05T01:11:21.295Z,4.47
2018-11-05T01:13:49.487Z,6.10
2018-11-05T01:16:17.705Z,4.07
2018-11-05T01:18:45.968Z,6.20
2018-11-05T01:21:14.207Z,5.63
2018-11-05T01:23:42.413Z,4.20
2018-11-05T01:26:10.616Z,4.63
2018-11-05T01:28:38.816Z,4.40
2018-11-05T01:31:07.194Z,6.73
2018-11-05T01:33:35.370Z,3.70
2018-11-05T01:36:03.765Z,8.23
2018-11-05T01:38:31.955Z,5.37
2018-11-05T01:41:00.150Z,4.10
2018-11-05T01:43:28.352Z,4.63
2018-11-05T01:45:56.549Z,4.37
2018-11-05T01:48:24.737Z,6.20
2018-11-05T01:50:52.919Z,4.20
2018-11-05T01:53:21.141Z,6.07
2018-11-05T01:55:49.347Z,5.50
2018-11-05T01:58:17.521Z,7.47
2018-11-05T02:00:45.711Z,5.00
2018-11-05T02:03:13.911Z,4.80
2018-11-05T02:05:42.091Z,5.30
2018-11-05T02:08:10.289Z,5.50
2018-11-05T02:10:38.479Z,4.20
2018-11-05T02:13:06.696Z,5.30
2018-11-05T02:15:34.891Z,5.90
2018-11-05T02:18:03.070Z,5.63
2018-11-05T02:20:31.245Z,4.70
2018-11-05T02:22:59.491Z,4.73
2018-11-05T02:25:27.711Z,5.43
2018-11-05T02:27:55.902Z,4.23
2018-11-05T02:30:24.081Z,4.50
2018-11-05T02:32:52.511Z,7.27
2018-11-05T02:35:20.739Z,4.23
2018-11-05T02:37:48.899Z,4.10
2018-11-05T02:40:19.091Z,4.70
2018-11-05T02:42:48.017Z,4.80
2018-11-05T02:45:17.307Z,3.73
2018-11-05T02:47:45.496Z,4.87
2018-11-05T02:50:14.283Z,3.30
2018-11-05T02:52:43.591Z,5.00
2018-11-05T02:55:11.840Z,3.53
2018-11-05T02:57:40.022Z,5.00
2018-11-05T03:00:11.763Z,5.30
2018-11-05T03:02:40.182Z,3.37
2018-11-05T03:05:10.703Z,4.30
2018-11-05T03:07:38.891Z,5.87
2018-11-05T03:10:08.067Z,4.37
2018-11-05T03:12:36.268Z,4.20
2018-11-05T03:15:05.254Z,3.83
2018-11-05T03:17:33.432Z,5.17
2018-11-05T03:20:01.626Z,6.00
2018-11-05T03:22:29.821Z,5.03
2018-11-05T03:24:58.041Z,5.17
2018-11-05T03:27:26.218Z,3.30
2018-11-05T03:29:54.424Z,4.40
2018-11-05T03:32:22.601Z,4.70
2018-11-05T03:34:50.790Z,4.90
2018-11-05T03:37:18.979Z,5.87
2018-11-05T03:39:47.168Z,4.73
2018-11-05T03:42:15.376Z,5.03
2018-11-05T03:44:43.548Z,5.50
2018-11-05T03:47:11.745Z,4.00
2018-11-05T03:49:39.913Z,4.77
2018-11-05T03:52:08.094Z,3.93
2018-11-05T03:54:36.306Z,5.03
2018-11-05T03:57:04.603Z,5.27
2018-11-05T03:59:33.102Z,4.47
2018-11-05T04:02:01.838Z,4.80
2018-11-05T04:04:30.019Z,6.07
2018-11-05T04:06:58.226Z,5.10
2018-11-05T04:09:26.432Z,5.73
2018-11-05T04:11:54.647Z,7.50
2018-11-05T04:14:22.827Z,4.97
2018-11-05T04:16:51.035Z,4.93
2018-11-05T04:19:19.211Z,5.00
2018-11-05T04:21:47.405Z,5.43
2018-11-05T04:24:16.128Z,5.23
2018-11-05T04:26:45.393Z,5.83
2018-11-05T04:29:13.599Z,3.90
2018-11-05T04:31:44.149Z,4.47
2018-11-05T04:34:12.985Z,5.20
2018-11-05T04:36:41.211Z,4.50
2018-11-05T04:39:12.153Z,5.70
2018-11-05T04:41:40.639Z,4.47
2018-11-05T04:44:09.233Z,4.53
2018-11-05T04:46:37.809Z,3.43
2018-11-05T04:49:06.285Z,5.20
2018-11-05T04:51:34.465Z,6.20
2018-11-05T04:54:02.679Z,5.80
2018-11-05T04:56:30.851Z,5.53
2018-11-05T04:58:59.056Z,3.23
2018-11-05T05:01:27.255Z,3.80
2018-11-05T05:03:55.456Z,6.03
2018-11-05T05:06:23.663Z,3.73
2018-11-05T05:08:52.015Z,4.37
2018-11-05T05:11:20.261Z,4.30
2018-11-05T05:13:48.445Z,5.73
2018-11-05T05:16:16.705Z,3.60
2018-11-05T05:18:44.848Z,5.33
2018-11-05T05:21:13.061Z,4.97
2018-11-05T05:23:41.270Z,4.00
2018-11-05T05:26:09.438Z,5.20
2018-11-05T05:28:37.627Z,4.50
2018-11-05T05:31:06.431Z,5.83
2018-11-05T05:33:34.670Z,5.20
2018-11-05T05:36:02.805Z,5.90
2018-11-05T05:38:30.991Z,5.37
2018-11-05T05:40:59.283Z,6.63
2018-11-05T05:43:27.434Z,5.60
2018-11-05T05:45:55.645Z,4.70
2018-11-05T05:48:23.851Z,5.70
2018-11-05T05:50:52.031Z,5.53
2018-11-05T05:53:20.231Z,7.43
2018-11-05T05:55:48.441Z,5.47
2018-11-05T05:58:16.626Z,4.30
2018-11-05T06:00:44.804Z,4.27
2018-11-05T06:03:13.002Z,4.37
2018-11-05T06:05:41.194Z,3.87
2018-11-05T06:08:09.373Z,4.73
2018-11-05T06:10:37.584Z,4.90
2018-11-05T06:13:05.965Z,5.10
2018-11-05T06:15:34.179Z,6.00
2018-11-05T06:18:02.343Z,5.93
2018-11-05T06:20:30.537Z,3.53
2018-11-05T06:22:58.796Z,5.23
2018-11-05T06:25:27.060Z,4.90
2018-11-05T06:27:55.178Z,4.63
2018-11-05T06:30:23.367Z,4.50
2018-11-05T06:32:52.310Z,5.30
2018-11-05T06:35:21.288Z,6.03
2018-11-05T06:37:49.318Z,5.43
2018-11-05T06:40:19.116Z,6.10
2018-11-05T06:42:47.442Z,4.63
2018-11-05T06:45:16.949Z,5.77
2018-11-05T06:47:45.802Z,5.07
2018-11-05T06:50:16.340Z,4.10
2018-11-05T06:52:45.073Z,6.90
2018-11-05T06:55:13.876Z,5.70
2018-11-05T06:57:42.435Z,6.43
2018-11-05T07:00:14.602Z,5.57
2018-11-05T07:02:43.100Z,5.17
2018-11-05T07:05:11.419Z,5.97
2018-11-05T07:07:39.606Z,5.27
2018-11-05T07:10:09.345Z,4.97
2018-11-05T07:12:37.950Z,4.90
2018-11-05T07:15:07.526Z,5.43
2018-11-05T07:17:35.737Z,5.07
2018-11-05T07:20:04.926Z,4.50
2018-11-05T07:22:33.150Z,5.17
2018-11-05T07:25:01.322Z,4.30
2018-11-05T07:27:29.545Z,6.00
2018-11-05T07:29:57.710Z,5.50
2018-11-05T07:32:25.892Z,5.43
2018-11-05T07:34:54.101Z,5.77
2018-11-05T07:37:22.300Z,4.23
2018-11-05T07:39:50.500Z,6.33
2018-11-05T07:42:18.676Z,6.10
2018-11-05T07:44:46.878Z,5.57
2018-11-05T07:47:15.080Z,5.80
2018-11-05T07:49:43.291Z,6.57
2018-11-05T07:52:11.479Z,6.87
2018-11-05T07:54:39.735Z,3.87
2018-11-05T07:57:07.904Z,4.60
2018-11-05T07:59:36.117Z,5.40
2018-11-05T08:02:04.902Z,6.13
2018-11-05T08:04:33.100Z,4.60
2018-11-05T08:07:01.314Z,6.17
2018-11-05T08:09:29.511Z,5.53
2018-11-05T08:11:57.723Z,5.10
2018-11-05T08:14:25.951Z,6.17
2018-11-05T08:16:54.124Z,5.80
2018-11-05T08:19:22.372Z,5.40
2018-11-05T08:21:50.534Z,6.33
2018-11-05T08:24:18.751Z,5.27
2018-11-05T08:26:46.966Z,6.37
2018-11-05T08:29:15.150Z,5.50
2018-11-05T08:31:43.337Z,5.77
2018-11-05T08:34:11.575Z,5.17
2018-11-05T08:36:39.740Z,7.17
2018-11-05T08:39:10.095Z,7.43
2018-11-05T08:41:38.285Z,5.73
2018-11-05T08:44:07.491Z,6.57
2018-11-05T08:46:35.721Z,5.73
2018-11-05T08:49:03.981Z,7.30
2018-11-05T08:51:32.781Z,5.10
2018-11-05T08:54:00.779Z,9.13
2018-11-05T08:56:29.632Z,5.43
2018-11-05T08:58:57.824Z,4.60
2018-11-05T09:01:30.271Z,6.27
2018-11-05T09:03:58.451Z,6.17
2018-11-05T09:06:26.649Z,5.10
2018-11-05T09:08:54.855Z,5.90
2018-11-05T09:11:23.600Z,5.80
2018-11-05T09:13:51.244Z,5.33
2018-11-05T09:16:19.532Z,6.40
2018-11-05T09:18:47.624Z,5.93
2018-11-05T09:21:15.803Z,4.80
2018-11-05T09:23:44.025Z,5.07
2018-11-05T09:26:12.263Z,6.10
2018-11-05T09:28:40.446Z,5.43
2018-11-05T09:31:08.644Z,4.17
2018-11-05T09:33:36.829Z,5.70
2018-11-05T09:36:05.014Z,5.97
2018-11-05T09:38:33.195Z,5.47
2018-11-05T09:41:01.368Z,5.33
2018-11-05T09:43:29.558Z,4.57
2018-11-05T09:45:57.758Z,6.37
2018-11-05T09:48:25.940Z,5.20
2018-11-05T09:50:54.142Z,5.40
2018-11-05T09:53:22.358Z,4.90
2018-11-05T09:55:50.550Z,4.87
2018-11-05T09:58:18.754Z,6.10
2018-11-05T10:00:46.953Z,5.13
2018-11-05T10:03:16.319Z,4.80
2018-11-05T10:05:44.492Z,4.00
2018-11-05T10:08:12.910Z,5.80
2018-11-05T10:10:41.124Z,3.53
2018-11-05T10:13:09.387Z,5.47
2018-11-05T10:15:37.575Z,5.80
2018-11-05T10:18:06.258Z,5.80
2018-11-05T10:20:34.466Z,4.80
2018-11-05T10:23:02.678Z,5.63
2018-11-05T10:25:30.865Z,5.97
2018-11-05T10:28:02.019Z,6.73
2018-11-05T10:30:30.400Z,4.93
2018-11-05T10:32:58.614Z,5.60
2018-11-05T10:35:32.217Z,6.60
2018-11-05T10:38:00.443Z,6.07
2018-11-05T10:40:28.651Z,5.27
2018-11-05T10:42:56.891Z,5.80
2018-11-05T10:45:25.088Z,6.07
2018-11-05T10:47:53.282Z,6.67
2018-11-05T10:50:21.494Z,5.90
2018-11-05T10:52:50.894Z,6.40
2018-11-05T10:55:19.070Z,4.53
2018-11-05T10:57:47.554Z,6.07
2018-11-05T11:00:23.336Z,5.40
2018-11-05T11:02:56.880Z,5.70
2018-11-05T11:05:25.709Z,5.80
2018-11-05T11:07:55.006Z,6.27
2018-11-05T11:10:23.722Z,4.87
2018-11-05T11:12:51.971Z,6.87
2018-11-05T11:15:20.833Z,7.10
2018-11-05T11:17:48.871Z,5.20
2018-11-05T11:20:17.062Z,4.37
2018-11-05T11:22:45.382Z,4.67
2018-11-05T11:25:13.589Z,6.53
2018-11-05T11:27:41.823Z,7.43
2018-11-05T11:30:11.802Z,5.67
2018-11-05T11:32:40.470Z,6.50
2018-11-05T11:35:09.174Z,5.97
2018-11-05T11:44:21.236Z,6.07
2018-11-05T11:46:49.358Z,6.20
2018-11-05T11:49:17.507Z,6.40
2018-11-05T11:51:45.716Z,5.80
2018-11-05T11:54:13.947Z,5.70
2018-11-05T11:56:42.197Z,7.43
2018-11-05T11:59:10.386Z,5.80
2018-11-05T12:01:43.974Z,4.67
2018-11-05T12:04:12.186Z,7.93
2018-11-05T12:06:40.398Z,6.90
2018-11-05T12:09:09.270Z,4.83
2018-11-05T12:11:37.750Z,5.00
2018-11-05T12:14:06.324Z,5.77
2018-11-05T12:16:34.478Z,7.70
2018-11-05T12:19:02.811Z,6.70
2018-11-05T12:21:31.054Z,6.03
2018-11-05T12:23:59.289Z,7.13
2018-11-05T12:26:27.552Z,5.30
2018-11-05T12:28:55.763Z,6.70
2018-11-05T12:31:23.949Z,7.60
2018-11-05T12:33:52.205Z,5.70
2018-11-05T12:36:20.505Z,5.60
2018-11-05T12:38:48.805Z,7.80
2018-11-05T12:41:16.968Z,6.50
2018-11-05T12:43:45.158Z,5.67
2018-11-05T12:46:13.527Z,6.95
2018-11-05T12:48:42.039Z,9.20
2018-11-05T12:51:10.249Z,7.50
2018-11-05T12:53:38.437Z,6.87
2018-11-05T12:56:06.816Z,6.70
2018-11-05T12:58:35.015Z,6.77
2018-11-05T13:01:03.287Z,7.60
2018-11-05T13:03:31.395Z,7.77
2018-11-05T13:05:59.571Z,7.57
2018-11-05T13:08:27.774Z,7.13
2018-11-05T13:10:55.980Z,7.07
2018-11-05T13:13:24.171Z,7.57
2018-11-05T13:15:52.382Z,7.47
2018-11-05T13:18:20.635Z,6.70
2018-11-05T13:20:48.833Z,7.27
2018-11-05T13:23:21.253Z,7.93
2018-11-05T13:25:49.439Z,6.07
2018-11-05T13:28:17.689Z,6.47
2018-11-05T13:30:45.876Z,6.43
2018-11-05T13:33:14.132Z,8.28
2018-11-05T13:35:42.319Z,6.27
2018-11-05T13:38:11.069Z,7.33
2018-11-05T13:40:38.709Z,6.37
2018-11-05T13:43:06.991Z,6.17
2018-11-05T13:45:35.353Z,7.30
2018-11-05T13:48:03.779Z,8.03
2018-11-05T13:50:31.899Z,6.73
2018-11-05T13:52:59.727Z,7.50
2018-11-05T13:55:27.925Z,7.80
2018-11-05T13:57:56.099Z,7.20
2018-11-05T14:00:24.299Z,6.73
2018-11-05T14:02:52.744Z,6.10
2018-11-05T14:05:20.949Z,6.27
2018-11-05T14:07:49.131Z,7.17
2018-11-05T14:10:18.954Z,7.17
2018-11-05T14:12:47.627Z,7.90
2018-11-05T14:15:15.790Z,8.50
2018-11-05T14:17:44.571Z,7.13
2018-11-05T14:20:13.671Z,8.07
2018-11-05T14:22:42.406Z,5.57
2018-11-05T14:25:12.659Z,8.70
2018-11-05T14:27:41.774Z,8.60
2018-11-05T14:30:11.277Z,8.20
2018-11-05T14:32:40.416Z,7.93
2018-11-05T14:35:08.895Z,6.80
2018-11-05T14:37:37.097Z,6.43
2018-11-05T14:40:06.605Z,7.20
2018-11-05T14:42:34.868Z,6.47
2018-11-05T14:45:02.989Z,6.37
2018-11-05T14:47:31.202Z,6.07
2018-11-05T14:49:59.384Z,7.20
2018-11-05T14:52:27.585Z,7.87
2018-11-05T14:54:55.828Z,6.40
2018-11-05T14:57:24.439Z,6.80
2018-11-05T14:59:52.572Z,7.30
2018-11-05T15:02:25.916Z,7.20
2018-11-05T15:04:54.158Z,7.30
2018-11-05T15:07:22.474Z,5.80
2018-11-05T15:09:50.639Z,6.20
2018-11-05T15:12:18.866Z,7.40
2018-11-05T15:14:47.116Z,6.53
2018-11-05T15:17:15.321Z,7.65
2018-11-05T15:19:44.073Z,6.50
2018-11-05T15:22:11.706Z,6.80
2018-11-05T15:24:39.889Z,6.80
2018-11-05T15:27:08.119Z,7.10
2018-11-05T15:29:36.271Z,5.70
2018-11-05T15:32:04.784Z,7.67
2018-11-05T15:34:32.975Z,6.20
2018-11-05T15:37:01.181Z,5.63
2018-11-05T15:39:29.374Z,7.80
2018-11-05T15:41:57.571Z,7.07
2018-11-05T15:44:25.797Z,6.00
2018-11-05T15:46:54.098Z,7.80
2018-11-05T15:49:22.301Z,6.30
2018-11-05T15:51:50.828Z,7.53
2018-11-05T15:54:18.865Z,7.50
2018-11-05T15:56:46.926Z,7.13
2018-11-05T15:59:15.811Z,5.60
2018-11-05T16:01:44.030Z,6.40
2018-11-05T16:04:12.258Z,5.37
2018-11-05T16:06:40.449Z,10.50
2018-11-05T16:09:09.083Z,7.00
2018-11-05T16:11:37.277Z,6.53
2018-11-05T16:14:07.409Z,7.20
2018-11-05T16:16:36.001Z,6.63
2018-11-05T16:19:04.275Z,7.40
2018-11-05T16:21:32.505Z,5.70
2018-11-05T16:24:00.747Z,6.80
2018-11-05T16:26:29.121Z,7.37
2018-11-05T16:28:58.343Z,6.90
2018-11-05T16:31:26.611Z,5.53
2018-11-05T16:33:54.827Z,8.50
2018-11-05T16:36:23.385Z,6.90
2018-11-05T16:38:51.542Z,7.33
2018-11-05T16:41:19.729Z,6.90
2018-11-05T16:43:47.949Z,9.30
2018-11-05T16:46:16.131Z,7.77
2018-11-05T16:48:44.398Z,6.10
2018-11-05T16:51:12.607Z,8.23
2018-11-05T16:53:40.962Z,8.80
2018-11-05T16:56:09.074Z,8.80
2018-11-05T16:58:37.329Z,8.70
2018-11-05T17:01:06.085Z,8.17
2018-11-05T17:03:34.133Z,6.93
2018-11-05T17:06:02.369Z,8.47
2018-11-05T17:08:30.593Z,9.63
2018-11-05T17:10:58.767Z,10.00
2018-11-05T17:13:27.066Z,7.23
2018-11-05T17:15:55.171Z,9.37
2018-11-05T17:18:23.385Z,8.30
2018-11-05T17:20:51.587Z,10.20
2018-11-05T17:23:19.854Z,8.47
2018-11-05T17:25:48.033Z,12.70
2018-11-05T17:28:16.283Z,10.40
2018-11-05T17:30:44.517Z,12.33
2018-11-05T17:33:12.771Z,13.63
2018-11-05T17:35:40.973Z,8.37
2018-11-05T17:38:09.189Z,10.13
2018-11-05T17:40:37.406Z,11.13
2018-11-05T17:43:05.832Z,9.10
2018-11-05T17:45:34.050Z,8.83
2018-11-05T17:48:02.269Z,14.67
2018-11-05T17:50:30.459Z,11.80
2018-11-05T17:52:58.729Z,12.07
2018-11-05T17:55:26.963Z,11.37
2018-11-05T17:57:55.184Z,7.37
2018-11-05T18:00:23.551Z,9.20
2018-11-05T18:02:51.840Z,8.23
2018-11-05T18:05:20.357Z,9.20
2018-11-05T18:07:48.549Z,11.63
2018-11-05T18:10:16.848Z,9.63
2018-11-05T18:12:45.220Z,9.63
2018-11-05T18:15:13.738Z,9.83
2018-11-05T18:17:42.760Z,9.90
2018-11-05T18:20:12.355Z,9.47
2018-11-05T18:22:40.944Z,8.83
2018-11-05T18:25:11.030Z,8.70
2018-11-05T18:27:39.264Z,9.07
2018-11-05T18:30:08.668Z,12.23
2018-11-05T18:32:36.876Z,11.40
2018-11-05T18:35:06.139Z,8.80
2018-11-05T18:37:34.320Z,10.50
2018-11-05T18:40:02.524Z,6.40
2018-11-05T18:42:30.785Z,8.97
2018-11-05T18:44:59.020Z,10.30
2018-11-05T18:47:27.228Z,12.10
2018-11-05T18:52:54.423Z,8.20
2018-11-05T18:55:22.648Z,8.60
2018-11-05T18:57:50.851Z,10.10
2018-11-05T19:00:22.053Z,26.57
2018-11-05T19:02:51.223Z,16.30
2018-11-05T19:05:19.837Z,12.33
2018-11-05T19:07:48.363Z,10.53
2018-11-05T19:10:16.553Z,12.27
2018-11-05T19:12:44.853Z,10.77
2018-11-05T19:15:14.250Z,10.63
2018-11-05T19:17:43.290Z,10.87
2018-11-05T19:20:12.048Z,6.87
2018-11-05T19:22:41.174Z,10.57
2018-11-05T19:25:10.810Z,9.47
2018-11-05T19:27:39.474Z,8.63
2018-11-05T19:30:14.263Z,9.40
2018-11-05T19:32:42.834Z,10.40
2018-11-05T19:35:11.706Z,10.63
2018-11-05T19:37:40.416Z,10.07
2018-11-05T19:40:10.238Z,11.43
2018-11-05T19:42:39.016Z,10.60
2018-11-05T19:45:10.342Z,11.60
2018-11-05T19:47:38.858Z,12.03
2018-11-05T19:50:09.130Z,8.03
2018-11-05T19:52:37.564Z,10.57
2018-11-05T19:55:07.432Z,9.37
2018-11-05T19:57:36.256Z,12.30
2018-11-05T20:00:06.617Z,13.93
2018-11-05T20:02:34.817Z,10.07
2018-11-05T20:05:02.981Z,9.43
2018-11-05T20:07:31.170Z,10.03
2018-11-05T20:09:59.392Z,13.03
2018-11-05T20:12:27.965Z,9.23
2018-11-05T20:14:56.243Z,9.93
2018-11-05T20:17:24.382Z,11.50
2018-11-05T20:19:52.574Z,8.90
2018-11-05T20:22:20.816Z,10.87
2018-11-05T20:24:48.993Z,10.50
2018-11-05T20:27:17.203Z,10.40
2018-11-05T20:29:45.411Z,8.83
2018-11-05T20:32:13.946Z,7.80
2018-11-05T20:34:41.899Z,9.10
2018-11-05T20:37:10.005Z,8.27
2018-11-05T20:39:38.281Z,10.50
2018-11-05T20:42:06.452Z,8.50
2018-11-05T20:44:34.655Z,10.37
2018-11-05T20:47:02.850Z,7.97
2018-11-05T20:49:31.049Z,9.00
2018-11-05T20:51:59.251Z,8.30
2018-11-05T20:54:27.463Z,10.93
2018-11-05T20:56:55.667Z,10.27
2018-11-05T20:59:23.855Z,7.23
2018-11-05T21:01:52.063Z,9.73
2018-11-05T21:04:20.275Z,10.63
2018-11-05T21:06:48.510Z,10.70
2018-11-05T21:09:16.729Z,9.90
2018-11-05T21:11:44.953Z,10.80
2018-11-05T21:14:13.148Z,9.20
2018-11-05T21:16:41.340Z,9.90
2018-11-05T21:19:09.575Z,11.20
2018-11-05T21:21:37.915Z,6.50
2018-11-05T21:24:05.999Z,7.30
2018-11-05T21:26:34.257Z,6.43
2018-11-05T21:29:02.476Z,10.47
2018-11-05T21:31:30.698Z,10.73
2018-11-05T21:36:27.156Z,8.37
2018-11-05T21:38:55.576Z,12.03
2018-11-05T21:41:23.807Z,10.43
2018-11-05T21:43:52.019Z,9.97
2018-11-05T21:46:20.257Z,11.20
2018-11-05T21:48:48.497Z,10.50
2018-11-05T21:51:16.717Z,11.17
2018-11-05T21:53:44.935Z,9.17
2018-11-05T21:56:13.160Z,8.10
2018-11-05T21:58:41.371Z,11.70
2018-11-05T22:01:09.578Z,8.27
2018-11-05T22:03:37.807Z,10.63
2018-11-05T22:06:06.341Z,9.50
2018-11-05T22:08:34.530Z,11.20
2018-11-05T22:11:02.744Z,8.50
2018-11-05T22:13:30.939Z,7.50
2018-11-05T22:15:59.133Z,8.67
2018-11-05T22:18:27.328Z,9.53
2018-11-05T22:20:55.514Z,8.10
2018-11-05T22:23:23.763Z,8.30
2018-11-05T22:25:51.994Z,8.97
2018-11-05T22:28:20.209Z,6.27
2018-11-05T22:30:48.412Z,8.60
2018-11-05T22:33:16.594Z,7.67
2018-11-05T22:35:44.851Z,8.83
2018-11-05T22:38:13.067Z,11.97
2018-11-05T22:40:41.179Z,10.57
2018-11-05T22:43:09.335Z,7.73
2018-11-05T22:45:37.521Z,7.53
2018-11-05T22:48:05.944Z,9.07
2018-11-05T22:50:34.174Z,7.43
2018-11-05T22:53:02.392Z,10.03
2018-11-05T22:55:30.592Z,8.70
2018-11-05T22:57:58.841Z,9.33
2018-11-05T23:00:32.434Z,10.13
2018-11-05T23:03:05.996Z,7.27
2018-11-05T23:05:34.229Z,10.50
2018-11-05T23:08:02.411Z,7.40
2018-11-05T23:10:30.610Z,8.87
2018-11-05T23:12:58.800Z,7.70
2018-11-05T23:15:27.035Z,9.20
2018-11-05T23:17:55.288Z,14.20
2018-11-05T23:20:23.428Z,8.73
2018-11-05T23:22:51.693Z,8.37
2018-11-05T23:25:19.878Z,7.83
2018-11-05T23:27:48.087Z,6.20
2018-11-05T23:30:16.249Z,8.03
2018-11-05T23:32:44.462Z,9.50
2018-11-05T23:35:12.687Z,10.13
2018-11-05T23:37:41.642Z,7.17
2018-11-05T23:40:10.116Z,7.53
2018-11-05T23:42:39.039Z,9.83
2018-11-05T23:45:10.596Z,9.57
2018-11-05T23:47:38.782Z,9.87
2018-11-05T23:50:07.362Z,8.40
2018-11-05T23:52:35.562Z,8.50
2018-11-05T23:55:03.840Z,9.73
2018-11-05T23:57:32.035Z,9.17
